createdAt,value
2018-11-21T00:00:24.981Z,16.70
2018-11-21T00:02:56.968Z,16.70
2018-11-21T00:05:25.401Z,16.70
2018-11-21T00:07:56.133Z,16.70
2018-11-21T00:10:24.023Z,16.70
2018-11-21T00:12:55.240Z,16.60
2018-11-21T00:15:22.944Z,16.60
2018-11-21T00:17:53.816Z,16.60
2018-11-21T00:20:21.564Z,16.60
2018-11-21T00:22:49.325Z,16.70
2018-11-21T00:25:23.405Z,16.70
2018-11-21T00:27:54.244Z,16.70
2018-11-21T00:30:24.786Z,16.70
2018-11-21T00:32:55.792Z,16.70
2018-11-21T00:35:23.542Z,16.70
2018-11-21T00:37:51.388Z,16.60
2018-11-21T00:40:22.249Z,16.60
2018-11-21T00:42:53.018Z,16.60
2018-11-21T00:45:23.810Z,16.60
2018-11-21T00:47:54.335Z,16.70
2018-11-21T00:50:25.290Z,16.80
2018-11-21T00:52:56.337Z,16.80
2018-11-21T00:55:26.876Z,16.90
2018-11-21T00:57:57.462Z,16.90
2018-11-21T01:00:25.198Z,16.90
2018-11-21T01:02:55.739Z,16.80
2018-11-21T01:05:26.788Z,16.80
2018-11-21T01:07:57.560Z,16.90
2018-11-21T01:10:28.351Z,16.90
2018-11-21T01:12:59.364Z,16.90
2018-11-21T01:15:30.020Z,16.80
2018-11-21T01:17:57.845Z,16.80
2018-11-21T01:20:28.578Z,16.80
2018-11-21T01:22:59.362Z,16.80
2018-11-21T01:25:28.945Z,16.80
2018-11-21T01:27:59.565Z,16.80
2018-11-21T01:30:30.358Z,16.70
2018-11-21T01:33:01.185Z,16.70
2018-11-21T01:35:28.858Z,16.60
2018-11-21T01:37:59.960Z,16.70
2018-11-21T01:40:30.827Z,16.60
2018-11-21T01:43:01.648Z,16.60
2018-11-21T01:45:32.375Z,16.60
2018-11-21T01:48:03.198Z,16.60
2018-11-21T01:50:34.039Z,16.60
2018-11-21T01:53:01.896Z,16.60
2018-11-21T01:55:32.589Z,16.60
2018-11-21T01:58:00.309Z,16.60
2018-11-21T02:00:31.507Z,16.60
2018-11-21T02:03:02.686Z,16.60
2018-11-21T02:05:30.415Z,16.60
2018-11-21T02:08:01.051Z,16.60
2018-11-21T02:10:31.909Z,16.60
2018-11-21T02:13:02.657Z,16.60
2018-11-21T02:15:33.466Z,16.70
2018-11-21T02:18:04.809Z,16.60
2018-11-21T02:20:32.824Z,16.70
2018-11-21T02:23:00.603Z,16.60
2018-11-21T02:25:31.478Z,16.60
2018-11-21T02:28:02.018Z,16.60
2018-11-21T02:30:32.607Z,16.60
2018-11-21T02:33:03.219Z,16.60
2018-11-21T02:35:33.920Z,16.60
2018-11-21T02:38:04.512Z,16.70
2018-11-21T02:40:32.251Z,16.70
2018-11-21T02:43:03.099Z,16.70
2018-11-21T02:45:30.826Z,16.70
2018-11-21T02:47:58.558Z,16.70
2018-11-21T02:50:26.379Z,16.70
2018-11-21T02:52:54.098Z,16.70
2018-11-21T02:55:21.851Z,16.60
2018-11-21T02:57:49.572Z,16.60
2018-11-21T03:00:21.734Z,16.70
2018-11-21T03:02:49.476Z,16.80
2018-11-21T03:05:17.609Z,16.80
2018-11-21T03:07:55.626Z,16.80
2018-11-21T03:10:24.201Z,16.90
2018-11-21T03:12:51.929Z,16.90
2018-11-21T03:15:19.896Z,16.90
2018-11-21T03:17:50.427Z,16.90
2018-11-21T03:20:18.439Z,16.80
2018-11-21T03:22:49.256Z,16.90
2018-11-21T03:25:19.847Z,16.80
2018-11-21T03:27:47.563Z,16.80
2018-11-21T03:30:15.477Z,16.80
2018-11-21T03:32:43.229Z,16.70
2018-11-21T03:35:11.236Z,16.70
2018-11-21T03:37:38.954Z,16.70
2018-11-21T03:40:10.448Z,16.70
2018-11-21T03:42:38.414Z,16.70
2018-11-21T03:45:09.655Z,16.70
2018-11-21T03:47:37.403Z,16.70
2018-11-21T03:50:08.643Z,16.70
2018-11-21T03:52:36.396Z,16.70
2018-11-21T03:55:07.233Z,16.70
2018-11-21T03:57:37.837Z,16.70
2018-11-21T04:00:07.120Z,16.70
2018-11-21T04:02:37.947Z,16.70
2018-11-21T04:05:06.319Z,16.70
2018-11-21T04:07:34.095Z,16.70
2018-11-21T04:10:06.891Z,16.70
2018-11-21T04:12:37.441Z,16.70
2018-11-21T04:15:08.964Z,16.70
2018-11-21T04:17:39.821Z,16.70
2018-11-21T04:20:10.979Z,16.70
2018-11-21T04:22:41.765Z,16.70
2018-11-21T04:25:12.575Z,16.70
2018-11-21T04:27:40.561Z,16.70
2018-11-21T04:30:12.748Z,16.80
2018-11-21T04:32:40.589Z,16.80
2018-11-21T04:35:11.144Z,16.80
2018-11-21T04:37:42.092Z,16.70
2018-11-21T04:40:12.677Z,16.70
2018-11-21T04:42:40.762Z,16.70
2018-11-21T04:45:11.443Z,16.80
2018-11-21T04:47:39.168Z,16.80
2018-11-21T04:50:09.980Z,16.80
2018-11-21T04:52:40.757Z,16.70
2018-11-21T04:55:08.862Z,16.70
2018-11-21T04:57:39.549Z,16.70
2018-11-21T05:00:08.408Z,16.70
2018-11-21T05:02:39.377Z,16.70
2018-11-21T05:05:11.283Z,16.70
2018-11-21T05:07:39.063Z,16.70
2018-11-21T05:10:07.449Z,16.60
2018-11-21T05:12:38.714Z,16.70
2018-11-21T05:15:06.704Z,16.70
2018-11-21T05:17:34.509Z,16.80
2018-11-21T05:20:02.267Z,16.80
2018-11-21T05:22:30.094Z,16.90
2018-11-21T05:25:00.930Z,16.90
2018-11-21T05:27:28.695Z,16.90
2018-11-21T05:29:59.636Z,16.90
2018-11-21T05:32:27.362Z,16.90
2018-11-21T05:34:58.708Z,16.90
2018-11-21T05:37:26.712Z,16.90
2018-11-21T05:39:57.534Z,16.90
2018-11-21T05:42:25.319Z,16.80
2018-11-21T05:44:56.329Z,16.80
2018-11-21T05:47:24.054Z,16.90
2018-11-21T05:49:51.816Z,16.90
2018-11-21T05:52:22.411Z,16.90
2018-11-21T05:54:52.946Z,16.90
2018-11-21T05:57:20.708Z,16.80
2018-11-21T05:59:48.473Z,16.80
2018-11-21T06:02:19.137Z,16.80
2018-11-21T06:04:49.637Z,16.80
2018-11-21T06:07:17.504Z,16.80
2018-11-21T06:09:47.561Z,16.80
2018-11-21T06:12:19.370Z,16.80
2018-11-21T06:14:51.309Z,16.80
2018-11-21T06:17:22.194Z,16.80
2018-11-21T06:19:49.921Z,16.80
2018-11-21T06:22:17.678Z,16.80
2018-11-21T06:24:48.506Z,16.80
2018-11-21T06:27:16.824Z,16.80
2018-11-21T06:29:44.546Z,16.90
2018-11-21T06:32:15.795Z,16.90
2018-11-21T06:34:48.054Z,17.00
2018-11-21T06:37:18.865Z,17.00
2018-11-21T06:39:48.938Z,17.00
2018-11-21T06:42:20.129Z,17.00
2018-11-21T06:44:47.884Z,16.90
2018-11-21T06:47:18.438Z,16.90
2018-11-21T06:49:49.235Z,16.90
2018-11-21T06:52:22.249Z,16.90
2018-11-21T06:54:47.810Z,16.80
2018-11-21T06:57:18.322Z,16.80
2018-11-21T06:59:48.605Z,16.80
2018-11-21T07:02:18.883Z,16.80
2018-11-21T07:04:49.843Z,16.90
2018-11-21T07:07:17.574Z,16.90
2018-11-21T07:09:48.172Z,16.80
2018-11-21T07:12:18.446Z,16.80
2018-11-21T07:14:49.200Z,16.80
2018-11-21T07:17:20.529Z,16.80
2018-11-21T07:19:51.030Z,16.80
2018-11-21T07:22:18.802Z,16.80
2018-11-21T07:24:49.832Z,16.80
2018-11-21T07:27:17.735Z,16.70
2018-11-21T07:29:48.631Z,16.70
2018-11-21T07:32:19.188Z,16.70
2018-11-21T07:34:49.763Z,16.70
2018-11-21T07:37:19.164Z,16.70
2018-11-21T07:39:49.931Z,16.80
2018-11-21T07:42:17.623Z,16.90
2018-11-21T07:44:45.936Z,17.00
2018-11-21T07:47:14.042Z,17.00
2018-11-21T07:49:42.150Z,17.00
2018-11-21T07:52:12.827Z,16.90
2018-11-21T07:54:40.656Z,16.90
2018-11-21T07:57:28.126Z,16.90
2018-11-21T08:00:14.071Z,16.90
2018-11-21T08:02:43.176Z,16.80
2018-11-21T08:05:18.704Z,16.80
2018-11-21T08:07:54.442Z,16.70
2018-11-21T08:10:40.307Z,16.70
2018-11-21T08:13:35.975Z,16.80
2018-11-21T08:16:22.030Z,16.80
2018-11-21T08:19:08.948Z,16.80
2018-11-21T08:22:04.936Z,16.70
2018-11-21T08:24:53.338Z,16.70
2018-11-21T08:27:41.923Z,16.70
2018-11-21T08:30:12.623Z,16.70
2018-11-21T08:32:44.420Z,16.70
2018-11-21T08:35:14.256Z,16.70
2018-11-21T08:37:42.177Z,16.70
2018-11-21T08:40:10.352Z,16.70
2018-11-21T08:42:41.254Z,16.70
2018-11-21T08:45:09.485Z,16.70
2018-11-21T08:47:37.146Z,16.70
2018-11-21T08:50:05.965Z,16.70
2018-11-21T08:52:36.933Z,16.70
2018-11-21T08:55:08.996Z,16.70
2018-11-21T08:57:34.194Z,16.80
2018-11-21T09:00:01.881Z,16.80
2018-11-21T09:02:29.637Z,16.80
2018-11-21T09:04:57.412Z,16.70
2018-11-21T09:07:25.480Z,16.70
2018-11-21T09:09:56.080Z,16.70
2018-11-21T09:12:23.827Z,16.70
2018-11-21T09:14:51.533Z,16.70
2018-11-21T09:17:22.457Z,16.70
2018-11-21T09:19:50.536Z,16.70
2018-11-21T09:22:18.294Z,16.70
2018-11-21T09:24:48.837Z,16.70
2018-11-21T09:27:18.437Z,16.70
2018-11-21T09:29:49.427Z,16.70
2018-11-21T09:32:20.254Z,16.70
2018-11-21T09:34:47.956Z,16.60
2018-11-21T09:37:16.065Z,16.70
2018-11-21T09:39:43.780Z,16.70
2018-11-21T09:42:11.495Z,16.80
2018-11-21T09:44:39.258Z,16.80
2018-11-21T09:47:07.057Z,16.90
2018-11-21T09:49:34.800Z,16.90
2018-11-21T09:52:02.997Z,16.90
2018-11-21T09:54:30.752Z,16.80
2018-11-21T09:56:58.611Z,16.80
2018-11-21T09:59:26.487Z,16.80
2018-11-21T10:02:12.695Z,16.80
2018-11-21T10:04:43.693Z,16.80
2018-11-21T10:07:17.595Z,16.70
2018-11-21T10:09:47.279Z,16.70
2018-11-21T10:12:17.875Z,16.70
2018-11-21T10:14:48.341Z,16.70
2018-11-21T10:17:18.846Z,16.70
2018-11-21T10:19:49.919Z,16.70
2018-11-21T10:22:17.637Z,16.70
2018-11-21T10:24:45.420Z,16.70
2018-11-21T10:27:13.148Z,16.60
2018-11-21T10:29:41.049Z,16.70
2018-11-21T10:32:11.721Z,16.70
2018-11-21T10:34:42.710Z,16.70
2018-11-21T10:37:13.200Z,16.70
2018-11-21T10:39:43.712Z,16.70
2018-11-21T10:42:15.916Z,16.60
2018-11-21T10:44:42.368Z,16.70
2018-11-21T10:47:13.090Z,16.70
2018-11-21T10:49:40.968Z,16.70
2018-11-21T10:52:11.754Z,16.60
2018-11-21T10:54:39.622Z,16.70
2018-11-21T10:57:10.657Z,16.60
2018-11-21T10:59:38.362Z,16.70
2018-11-21T11:02:26.751Z,16.70
2018-11-21T11:05:09.619Z,16.70
2018-11-21T11:07:56.655Z,16.70
2018-11-21T11:10:45.018Z,16.70
2018-11-21T11:13:35.762Z,16.70
2018-11-21T11:16:41.956Z,16.70
2018-11-21T11:19:34.419Z,16.70
2018-11-21T11:22:26.924Z,16.70
2018-11-21T11:25:15.739Z,16.70
2018-11-21T11:28:08.753Z,16.60
2018-11-21T11:31:04.359Z,16.60
2018-11-21T11:33:54.283Z,16.60
2018-11-21T11:36:59.565Z,16.60
2018-11-21T11:39:55.380Z,16.60
2018-11-21T11:42:44.121Z,16.70
2018-11-21T11:45:36.815Z,16.70
2018-11-21T11:48:29.754Z,16.80
2018-11-21T11:51:17.379Z,16.80
2018-11-21T11:54:22.702Z,16.80
2018-11-21T11:57:24.876Z,16.80
2018-11-21T12:00:10.422Z,16.70
2018-11-21T12:03:00.381Z,16.70
2018-11-21T12:05:49.466Z,16.80
2018-11-21T12:08:39.536Z,16.80
2018-11-21T12:11:25.549Z,16.70
2018-11-21T12:14:20.015Z,16.60
2018-11-21T12:17:12.602Z,16.70
2018-11-21T12:19:46.889Z,16.70
2018-11-21T12:22:42.680Z,16.70
2018-11-21T12:25:46.814Z,16.70
2018-11-21T12:28:33.786Z,16.70
2018-11-21T12:31:15.921Z,16.70
2018-11-21T12:34:07.144Z,16.80
2018-11-21T12:36:56.585Z,16.70
2018-11-21T12:39:42.054Z,16.70
2018-11-21T12:42:27.654Z,16.70
2018-11-21T12:45:09.442Z,16.60
2018-11-21T12:48:02.197Z,16.60
2018-11-21T12:50:49.318Z,16.60
2018-11-21T12:53:54.443Z,16.60
2018-11-21T12:56:53.487Z,16.60
2018-11-21T12:59:49.521Z,16.60
2018-11-21T13:02:48.533Z,16.60
2018-11-21T13:05:46.651Z,16.60
2018-11-21T13:08:30.481Z,16.60
2018-11-21T13:11:11.142Z,16.50
2018-11-21T13:13:56.870Z,16.50
2018-11-21T13:16:56.089Z,16.50
2018-11-21T13:19:37.444Z,16.50
2018-11-21T13:22:33.208Z,16.50
2018-11-21T13:25:18.990Z,16.60
2018-11-21T13:28:20.005Z,16.60
2018-11-21T13:31:09.519Z,16.60
2018-11-21T13:33:58.544Z,16.60
2018-11-21T13:36:57.391Z,16.60
2018-11-21T13:39:42.807Z,16.60
2018-11-21T13:42:32.707Z,16.60
2018-11-21T13:45:28.537Z,16.70
2018-11-21T13:48:18.272Z,16.70
2018-11-21T13:51:11.308Z,16.80
2018-11-21T13:53:58.198Z,16.80
2018-11-21T13:56:25.924Z,16.80
2018-11-21T13:58:56.661Z,16.80
2018-11-21T14:01:24.459Z,16.80
2018-11-21T14:03:52.506Z,16.80
2018-11-21T14:06:20.306Z,16.80
2018-11-21T14:08:50.826Z,16.80
2018-11-21T14:11:18.583Z,16.70
2018-11-21T14:13:47.334Z,16.70
2018-11-21T14:16:17.572Z,16.70
2018-11-21T14:18:48.145Z,16.70
2018-11-21T14:21:15.991Z,16.70
2018-11-21T14:23:49.738Z,16.80
2018-11-21T14:26:17.895Z,16.80
2018-11-21T14:28:48.852Z,16.80
2018-11-21T14:31:18.652Z,16.80
2018-11-21T14:33:49.185Z,16.80
2018-11-21T14:36:23.131Z,16.80
2018-11-21T14:38:50.882Z,16.80
2018-11-21T14:41:18.775Z,16.70
2018-11-21T14:43:49.061Z,16.70
2018-11-21T14:46:19.574Z,16.70
2018-11-21T14:48:50.551Z,16.70
2018-11-21T14:51:18.275Z,16.70
2018-11-21T14:53:49.141Z,16.70
2018-11-21T14:56:23.203Z,16.60
2018-11-21T14:58:53.901Z,16.60
2018-11-21T15:01:24.794Z,16.60
2018-11-21T15:03:52.539Z,16.60
2018-11-21T15:06:23.300Z,16.50
2018-11-21T15:08:54.362Z,16.60
2018-11-21T15:11:25.264Z,16.60
2018-11-21T15:13:55.838Z,16.60
2018-11-21T15:16:26.847Z,16.40
2018-11-21T15:18:57.736Z,16.40
2018-11-21T15:21:25.476Z,16.50
2018-11-21T15:23:56.274Z,16.50
2018-11-21T15:26:27.005Z,16.60
2018-11-21T15:28:54.782Z,16.60
2018-11-21T15:31:22.708Z,16.60
2018-11-21T15:33:50.483Z,16.70
2018-11-21T15:36:18.513Z,16.70
2018-11-21T15:38:49.273Z,16.80
2018-11-21T15:41:20.196Z,16.80
2018-11-21T15:43:47.969Z,16.90
2018-11-21T15:46:15.923Z,16.90
2018-11-21T15:48:43.658Z,16.90
2018-11-21T15:51:14.469Z,16.90
2018-11-21T15:53:45.731Z,16.90
2018-11-21T15:56:18.250Z,16.90
2018-11-21T15:58:48.763Z,16.90
2018-11-21T16:01:19.151Z,16.90
2018-11-21T16:03:50.283Z,16.90
2018-11-21T16:06:18.062Z,16.90
2018-11-21T16:08:45.910Z,16.80
2018-11-21T16:11:13.637Z,16.80
2018-11-21T16:13:41.507Z,16.80
2018-11-21T16:16:12.290Z,16.80
2018-11-21T16:18:40.039Z,16.80
2018-11-21T16:21:10.816Z,16.80
2018-11-21T16:23:41.572Z,16.70
2018-11-21T16:26:09.281Z,16.70
2018-11-21T16:28:37.308Z,16.70
2018-11-21T16:31:05.170Z,16.70
2018-11-21T16:33:35.913Z,16.70
2018-11-21T16:36:03.958Z,16.80
2018-11-21T16:38:35.681Z,16.90
2018-11-21T16:41:03.851Z,17.00
2018-11-21T16:43:31.406Z,17.00
2018-11-21T16:46:02.181Z,17.00
2018-11-21T16:48:30.193Z,17.10
2018-11-21T16:50:58.060Z,17.10
2018-11-21T16:53:28.974Z,17.10
2018-11-21T16:55:56.789Z,17.10
2018-11-21T16:58:24.700Z,17.10
2018-11-21T17:00:52.398Z,17.10
2018-11-21T17:03:20.167Z,17.00
2018-11-21T17:05:50.854Z,17.00
2018-11-21T17:08:18.591Z,17.00
2018-11-21T17:10:49.455Z,17.00
2018-11-21T17:13:20.603Z,17.00
2018-11-21T17:15:48.361Z,17.00
2018-11-21T17:18:18.209Z,16.90
2018-11-21T17:20:49.043Z,16.90
2018-11-21T17:23:17.790Z,16.90
2018-11-21T17:25:48.261Z,16.90
2018-11-21T17:28:19.532Z,16.80
2018-11-21T17:30:47.284Z,16.90
2018-11-21T17:33:15.033Z,16.90
2018-11-21T17:35:45.929Z,16.80
2018-11-21T17:38:19.705Z,16.80
2018-11-21T17:40:47.621Z,16.80
2018-11-21T17:43:15.875Z,16.80
2018-11-21T17:45:46.472Z,16.80
2018-11-21T17:48:14.403Z,16.80
2018-11-21T17:50:46.810Z,16.80
2018-11-21T17:53:12.673Z,16.80
2018-11-21T17:55:40.829Z,16.80
2018-11-21T17:58:08.842Z,16.80
2018-11-21T18:00:37.001Z,16.80
2018-11-21T18:03:07.734Z,16.80
2018-11-21T18:05:40.400Z,16.80
2018-11-21T18:08:08.148Z,16.80
2018-11-21T18:10:40.969Z,16.80
2018-11-21T18:13:11.735Z,16.50
2018-11-21T18:15:39.681Z,16.00
2018-11-21T18:18:07.442Z,15.60
2018-11-21T18:20:38.336Z,15.60
2018-11-21T18:23:06.157Z,15.90
2018-11-21T18:25:39.057Z,16.20
2018-11-21T18:28:06.943Z,16.40
2018-11-21T18:30:34.705Z,16.60
2018-11-21T18:33:02.482Z,16.70
2018-11-21T18:35:35.657Z,16.80
2018-11-21T18:38:01.052Z,16.90
2018-11-21T18:40:32.119Z,17.00
2018-11-21T18:43:02.791Z,17.00
2018-11-21T18:45:33.302Z,17.00
2018-11-21T18:48:01.065Z,16.90
2018-11-21T18:50:28.869Z,16.90
2018-11-21T18:52:57.663Z,16.90
2018-11-21T18:55:29.778Z,16.90
2018-11-21T18:58:16.029Z,16.90
2018-11-21T19:00:47.101Z,16.80
2018-11-21T19:03:16.793Z,16.80
2018-11-21T19:05:42.564Z,16.80
2018-11-21T19:08:10.313Z,16.90
2018-11-21T19:10:38.059Z,16.90
2018-11-21T19:13:05.851Z,16.80
2018-11-21T19:15:33.628Z,16.80
2018-11-21T19:18:01.431Z,16.80
2018-11-21T19:20:29.157Z,16.80
2018-11-21T19:22:59.727Z,16.80
2018-11-21T19:25:27.554Z,16.80
2018-11-21T19:27:58.347Z,16.80
2018-11-21T19:30:29.243Z,16.80
2018-11-21T19:32:57.085Z,16.80
2018-11-21T19:35:27.929Z,16.80
2018-11-21T19:37:55.697Z,16.80
2018-11-21T19:40:26.802Z,16.80
2018-11-21T19:42:54.580Z,16.80
2018-11-21T19:45:22.344Z,16.80
2018-11-21T19:47:50.117Z,16.80
2018-11-21T19:50:21.353Z,16.80
2018-11-21T19:52:52.531Z,16.80
2018-11-21T19:55:22.208Z,16.80
2018-11-21T19:57:50.041Z,16.80
2018-11-21T20:00:25.508Z,16.80
2018-11-21T20:02:56.246Z,16.80
2018-11-21T20:05:24.040Z,16.80
2018-11-21T20:07:51.996Z,16.90
2018-11-21T20:10:22.988Z,17.00
2018-11-21T20:12:50.732Z,17.00
2018-11-21T20:15:20.293Z,17.00
2018-11-21T20:17:49.991Z,17.00
2018-11-21T20:20:21.429Z,17.00
2018-11-21T20:22:52.762Z,17.00
2018-11-21T20:25:24.387Z,17.00
2018-11-21T20:27:55.448Z,17.00
2018-11-21T20:30:24.886Z,17.00
2018-11-21T20:32:52.902Z,16.90
2018-11-21T20:35:21.079Z,16.90
2018-11-21T20:37:49.600Z,16.90
2018-11-21T20:40:22.460Z,16.90
2018-11-21T20:42:50.584Z,16.90
2018-11-21T20:45:22.672Z,16.90
2018-11-21T20:47:51.618Z,16.90
2018-11-21T20:50:22.249Z,16.90
2018-11-21T20:52:50.759Z,16.90
2018-11-21T20:55:19.681Z,16.80
2018-11-21T20:57:50.738Z,16.80
2018-11-21T21:00:23.221Z,16.80
2018-11-21T21:02:50.984Z,16.80
2018-11-21T21:05:23.354Z,16.70
2018-11-21T21:07:51.278Z,16.70
2018-11-21T21:10:23.288Z,16.70
2018-11-21T21:12:51.053Z,16.70
2018-11-21T21:15:18.824Z,16.70
2018-11-21T21:17:49.005Z,16.70
2018-11-21T21:20:20.674Z,16.70
2018-11-21T21:22:49.732Z,16.70
2018-11-21T21:25:19.187Z,16.70
2018-11-21T21:27:52.792Z,16.70
2018-11-21T21:30:22.552Z,16.70
2018-11-21T21:32:53.232Z,16.70
2018-11-21T21:35:21.962Z,16.70
2018-11-21T21:37:49.727Z,16.70
2018-11-21T21:40:21.018Z,16.70
2018-11-21T21:42:48.840Z,16.70
2018-11-21T21:45:28.741Z,16.70
2018-11-21T21:47:56.742Z,16.70
2018-11-21T21:50:26.167Z,16.70
2018-11-21T21:52:53.925Z,16.80
2018-11-21T21:55:25.746Z,16.80
2018-11-21T21:57:53.866Z,16.90
2018-11-21T22:00:23.146Z,16.90
2018-11-21T22:02:54.633Z,16.90
2018-11-21T22:05:22.581Z,16.90
2018-11-21T22:07:53.316Z,16.90
2018-11-21T22:10:22.003Z,16.80
2018-11-21T22:12:49.750Z,16.80
2018-11-21T22:15:22.397Z,16.80
2018-11-21T22:17:50.636Z,16.80
2018-11-21T22:20:19.371Z,16.80
2018-11-21T22:22:50.738Z,16.80
2018-11-21T22:25:18.607Z,16.80
2018-11-21T22:27:49.221Z,16.80
2018-11-21T22:30:23.033Z,16.80
2018-11-21T22:32:51.552Z,16.80
2018-11-21T22:35:24.909Z,16.80
2018-11-21T22:37:51.470Z,16.80
2018-11-21T22:40:19.526Z,16.80
2018-11-21T22:42:47.476Z,16.80
2018-11-21T22:45:36.890Z,16.80
2018-11-21T22:48:07.738Z,16.80
2018-11-21T22:50:35.667Z,16.70
2018-11-21T22:53:06.442Z,16.70
2018-11-21T22:55:34.165Z,16.70
2018-11-21T22:58:02.027Z,16.70
2018-11-21T23:00:43.650Z,16.70
2018-11-21T23:03:12.191Z,16.70
2018-11-21T23:05:40.318Z,16.70
2018-11-21T23:08:11.142Z,16.70
2018-11-21T23:10:41.783Z,16.70
2018-11-21T23:13:09.548Z,16.70
2018-11-21T23:15:40.418Z,16.70
2018-11-21T23:18:08.512Z,16.70
2018-11-21T23:20:38.986Z,16.70
2018-11-21T23:23:09.500Z,16.70
2018-11-21T23:25:40.075Z,16.70
2018-11-21T23:28:08.530Z,16.70
2018-11-21T23:30:36.325Z,16.70
2018-11-21T23:33:04.064Z,16.70
2018-11-21T23:35:34.668Z,16.70
2018-11-21T23:38:05.595Z,16.70
2018-11-21T23:40:33.373Z,16.70
2018-11-21T23:43:05.108Z,16.70
2018-11-21T23:45:35.672Z,16.70
2018-11-21T23:48:06.621Z,16.70
2018-11-21T23:50:37.140Z,16.70
2018-11-21T23:53:04.927Z,16.70
2018-11-21T23:55:32.645Z,16.80
2018-11-21T23:58:03.472Z,16.80
